createdAt,value
2022-10-31T00:00:59.512Z,5.30
2022-10-31T00:03:27.315Z,5.30
2022-10-31T00:05:54.932Z,5.00
2022-10-31T00:08:22.021Z,5.50
2022-10-31T00:10:49.128Z,5.88
2022-10-31T00:13:16.625Z,6.10
2022-10-31T00:15:43.841Z,5.13
2022-10-31T00:18:11.431Z,5.63
2022-10-31T00:20:38.759Z,5.63
2022-10-31T00:23:06.668Z,5.30
2022-10-31T00:25:40.403Z,5.10
2022-10-31T00:28:08.398Z,5.07
2022-10-31T00:30:35.654Z,5.22
2022-10-31T00:33:04.681Z,5.60
2022-10-31T00:35:31.752Z,4.82
2022-10-31T00:37:58.922Z,4.65
2022-10-31T00:40:26.026Z,4.82
2022-10-31T00:42:53.265Z,4.53
2022-10-31T00:45:20.429Z,5.28
2022-10-31T00:47:47.554Z,5.07
2022-10-31T00:50:14.624Z,4.57
2022-10-31T00:52:41.787Z,4.88
2022-10-31T00:55:08.918Z,4.30
2022-10-31T00:57:36.016Z,4.35
2022-10-31T01:00:03.135Z,3.97
2022-10-31T01:02:30.347Z,4.13
2022-10-31T01:04:57.696Z,4.10
2022-10-31T01:07:24.842Z,4.82
2022-10-31T01:09:52.003Z,4.25
2022-10-31T01:12:19.093Z,4.90
2022-10-31T01:14:46.786Z,4.82
2022-10-31T01:17:14.578Z,4.63
2022-10-31T01:19:41.743Z,4.55
2022-10-31T01:22:08.897Z,4.47
2022-10-31T01:24:36.087Z,4.25
2022-10-31T01:27:03.397Z,4.68
2022-10-31T01:29:30.484Z,4.45
2022-10-31T01:31:57.585Z,4.20
2022-10-31T01:34:24.661Z,3.97
2022-10-31T01:36:52.148Z,4.20
2022-10-31T01:39:20.363Z,4.60
2022-10-31T01:41:49.016Z,4.18
2022-10-31T01:44:16.130Z,4.18
2022-10-31T01:46:52.623Z,4.28
2022-10-31T01:49:19.705Z,3.97
2022-10-31T01:51:49.550Z,3.85
2022-10-31T01:54:19.843Z,4.38
2022-10-31T01:56:49.608Z,4.22
2022-10-31T01:59:19.310Z,3.83
2022-10-31T02:01:46.569Z,4.00
2022-10-31T02:04:13.921Z,4.65
2022-10-31T02:06:44.948Z,4.18
2022-10-31T02:09:12.830Z,3.85
2022-10-31T02:11:40.085Z,4.30
2022-10-31T02:14:07.174Z,4.97
2022-10-31T02:16:34.258Z,4.28
2022-10-31T02:19:01.449Z,4.10
2022-10-31T02:21:38.422Z,4.28
2022-10-31T02:24:24.367Z,3.83
2022-10-31T02:27:00.435Z,4.55
2022-10-31T02:29:39.778Z,3.28
2022-10-31T02:32:21.535Z,4.03
2022-10-31T02:34:57.921Z,3.65
2022-10-31T02:37:48.022Z,4.28
2022-10-31T02:40:29.268Z,3.88
2022-10-31T02:43:16.596Z,4.40
2022-10-31T02:45:48.413Z,3.78
2022-10-31T02:48:24.197Z,4.22
2022-10-31T02:50:54.742Z,4.30
2022-10-31T02:53:21.834Z,3.58
2022-10-31T02:55:51.811Z,3.80
2022-10-31T02:58:23.201Z,3.80
2022-10-31T03:00:52.117Z,4.05
2022-10-31T03:03:36.814Z,3.97
2022-10-31T03:06:07.000Z,3.57
2022-10-31T03:08:40.471Z,3.45
2022-10-31T03:11:08.606Z,4.00
2022-10-31T03:13:51.904Z,3.70
2022-10-31T03:16:28.415Z,4.00
2022-10-31T03:19:01.631Z,4.50
2022-10-31T03:21:32.210Z,3.78
2022-10-31T03:24:00.531Z,4.28
2022-10-31T03:26:27.668Z,3.70
2022-10-31T03:29:06.720Z,4.10
2022-10-31T03:31:54.041Z,3.63
2022-10-31T03:34:21.447Z,3.72
2022-10-31T03:36:50.615Z,4.15
2022-10-31T03:39:19.498Z,3.95
2022-10-31T03:41:48.822Z,3.95
2022-10-31T03:44:18.689Z,3.85
2022-10-31T03:46:45.882Z,4.10
2022-10-31T03:49:13.633Z,3.58
2022-10-31T03:51:58.821Z,3.70
2022-10-31T03:54:29.365Z,4.07
2022-10-31T03:57:08.597Z,3.88
2022-10-31T03:59:42.221Z,4.05
2022-10-31T04:02:12.768Z,4.10
2022-10-31T04:04:40.353Z,3.80
2022-10-31T04:07:08.394Z,3.80
2022-10-31T04:09:38.236Z,3.60
2022-10-31T04:12:07.509Z,3.72
2022-10-31T04:14:35.293Z,3.80
2022-10-31T04:17:03.536Z,3.80
2022-10-31T04:19:30.693Z,3.72
2022-10-31T04:21:57.790Z,4.40
2022-10-31T04:24:24.951Z,3.60
2022-10-31T04:26:52.039Z,3.97
2022-10-31T04:29:19.158Z,3.67
2022-10-31T04:31:46.243Z,3.55
2022-10-31T04:34:13.440Z,3.85
2022-10-31T04:36:40.633Z,3.80
2022-10-31T04:39:07.787Z,3.72
2022-10-31T04:41:34.894Z,4.20
2022-10-31T04:44:01.983Z,3.40
2022-10-31T04:46:29.099Z,3.67
2022-10-31T04:48:56.233Z,3.50
2022-10-31T04:51:23.410Z,3.60
2022-10-31T04:53:50.496Z,3.83
2022-10-31T04:56:17.599Z,3.50
2022-10-31T04:58:44.673Z,4.05
2022-10-31T05:01:11.874Z,4.22
2022-10-31T05:03:40.706Z,3.47
2022-10-31T05:06:08.244Z,3.63
2022-10-31T05:08:35.365Z,3.47
2022-10-31T05:11:04.462Z,3.17
2022-10-31T05:13:32.152Z,3.40
2022-10-31T05:15:59.303Z,3.70
2022-10-31T05:18:26.538Z,3.90
2022-10-31T05:20:53.621Z,3.65
2022-10-31T05:23:20.756Z,3.67
2022-10-31T05:25:47.853Z,3.75
2022-10-31T05:28:15.046Z,4.18
2022-10-31T05:30:42.174Z,3.30
2022-10-31T05:33:09.317Z,4.05
2022-10-31T05:35:36.475Z,3.80
2022-10-31T05:38:03.921Z,3.65
2022-10-31T05:40:31.049Z,4.03
2022-10-31T05:43:01.333Z,3.53
2022-10-31T05:45:28.757Z,4.50
2022-10-31T05:48:00.443Z,3.75
2022-10-31T05:50:28.906Z,3.40
2022-10-31T05:53:00.131Z,3.72
2022-10-31T05:55:27.618Z,3.53
2022-10-31T05:57:55.554Z,3.30
2022-10-31T06:00:23.160Z,3.90
2022-10-31T06:02:50.576Z,3.72
2022-10-31T06:05:17.853Z,3.40
2022-10-31T06:07:44.975Z,4.20
2022-10-31T06:10:12.150Z,4.78
2022-10-31T06:12:39.393Z,3.78
2022-10-31T06:15:07.338Z,3.35
2022-10-31T06:17:37.965Z,3.70
2022-10-31T06:20:05.683Z,4.07
2022-10-31T06:22:32.765Z,3.33
2022-10-31T06:24:59.917Z,3.63
2022-10-31T06:27:27.361Z,3.45
2022-10-31T06:29:54.832Z,3.35
2022-10-31T06:32:22.012Z,3.22
2022-10-31T06:34:49.230Z,3.30
2022-10-31T06:37:16.563Z,3.40
2022-10-31T06:39:43.652Z,3.63
2022-10-31T06:42:10.763Z,3.92
2022-10-31T06:44:37.850Z,3.22
2022-10-31T06:47:05.047Z,3.40
2022-10-31T06:49:32.136Z,3.38
2022-10-31T06:51:59.318Z,3.97
2022-10-31T06:54:26.444Z,3.45
2022-10-31T06:56:54.123Z,3.17
2022-10-31T06:59:21.313Z,3.42
2022-10-31T07:01:48.548Z,3.60
2022-10-31T07:04:15.741Z,3.35
2022-10-31T07:06:42.842Z,3.85
2022-10-31T07:09:10.134Z,3.03
2022-10-31T07:11:37.225Z,2.80
2022-10-31T07:14:04.361Z,3.15
2022-10-31T07:16:31.481Z,3.17
2022-10-31T07:18:58.602Z,3.65
2022-10-31T07:21:25.681Z,3.47
2022-10-31T07:23:52.772Z,3.20
2022-10-31T07:26:19.918Z,2.97
2022-10-31T07:28:48.466Z,3.25
2022-10-31T07:31:15.575Z,3.97
2022-10-31T07:33:42.685Z,3.90
2022-10-31T07:36:09.848Z,3.30
2022-10-31T07:38:36.945Z,3.58
2022-10-31T07:41:04.067Z,3.15
2022-10-31T07:43:31.181Z,4.07
2022-10-31T07:45:58.276Z,3.33
2022-10-31T07:48:25.415Z,3.05
2022-10-31T07:50:52.540Z,2.97
2022-10-31T07:53:19.709Z,3.25
2022-10-31T07:55:46.973Z,3.47
2022-10-31T07:58:15.486Z,3.38
2022-10-31T08:00:43.772Z,3.65
2022-10-31T08:03:12.562Z,3.40
2022-10-31T08:05:41.904Z,3.80
2022-10-31T08:08:09.795Z,3.50
2022-10-31T08:10:37.364Z,3.30
2022-10-31T08:13:06.172Z,3.50
2022-10-31T08:15:34.999Z,3.58
2022-10-31T08:18:03.400Z,4.45
2022-10-31T08:20:30.798Z,4.20
2022-10-31T08:23:02.394Z,4.38
2022-10-31T08:25:33.777Z,4.28
2022-10-31T08:30:32.899Z,4.40
2022-10-31T08:33:05.139Z,4.40
2022-10-31T08:35:32.926Z,4.95
2022-10-31T08:38:00.824Z,4.88
2022-10-31T08:40:29.659Z,6.28
2022-10-31T08:42:57.606Z,5.50
2022-10-31T08:45:25.023Z,6.10
2022-10-31T08:47:52.432Z,5.22
2022-10-31T08:50:20.079Z,5.28
2022-10-31T08:53:04.211Z,5.85
2022-10-31T08:55:31.895Z,5.57
2022-10-31T08:58:00.194Z,5.03
2022-10-31T09:00:27.780Z,5.47
2022-10-31T09:02:58.945Z,5.65
2022-10-31T09:05:26.605Z,4.88
2022-10-31T09:07:58.487Z,5.00
2022-10-31T09:10:26.618Z,5.40
2022-10-31T09:13:00.504Z,4.90
2022-10-31T09:15:28.242Z,5.55
2022-10-31T09:17:56.147Z,4.63
2022-10-31T09:20:23.411Z,4.80
2022-10-31T09:22:56.755Z,4.43
2022-10-31T09:25:23.996Z,4.60
2022-10-31T09:27:51.285Z,4.88
2022-10-31T09:30:19.070Z,4.43
2022-10-31T09:32:46.213Z,4.43
2022-10-31T09:35:13.404Z,4.68
2022-10-31T09:37:40.586Z,4.18
2022-10-31T09:40:07.816Z,4.47
2022-10-31T09:42:34.919Z,3.78
2022-10-31T09:45:20.771Z,4.13
2022-10-31T09:48:04.272Z,3.75
2022-10-31T09:50:44.147Z,3.85
2022-10-31T09:53:25.529Z,3.35
2022-10-31T09:55:53.247Z,4.18
2022-10-31T09:58:33.027Z,3.63
2022-10-31T10:01:03.361Z,3.30
2022-10-31T10:03:30.586Z,3.88
2022-10-31T10:06:08.063Z,3.08
2022-10-31T10:08:36.477Z,3.40
2022-10-31T10:11:09.799Z,4.00
2022-10-31T10:13:43.266Z,3.45
2022-10-31T10:16:34.367Z,3.08
2022-10-31T10:19:04.780Z,2.92
2022-10-31T10:21:50.230Z,3.90
2022-10-31T10:24:17.428Z,3.92
2022-10-31T10:27:04.795Z,3.40
2022-10-31T10:29:35.763Z,2.80
2022-10-31T10:32:04.788Z,3.03
2022-10-31T10:34:33.813Z,2.95
2022-10-31T10:37:04.481Z,3.20
2022-10-31T10:39:43.014Z,2.80
2022-10-31T10:42:33.387Z,2.65
2022-10-31T10:45:20.175Z,3.00
2022-10-31T10:47:52.471Z,2.95
2022-10-31T10:50:20.963Z,2.95
2022-10-31T10:53:03.560Z,2.80
2022-10-31T10:55:30.816Z,3.58
2022-10-31T10:58:00.577Z,3.20
2022-10-31T11:00:28.534Z,3.28
2022-10-31T11:02:56.023Z,2.65
2022-10-31T11:05:25.980Z,2.72
2022-10-31T11:07:53.260Z,2.60
2022-10-31T11:10:20.446Z,2.90
2022-10-31T11:12:59.962Z,3.15
2022-10-31T11:15:28.155Z,3.13
2022-10-31T11:17:56.896Z,3.17
2022-10-31T11:20:24.003Z,3.10
2022-10-31T11:22:51.142Z,3.22
2022-10-31T11:25:21.226Z,3.10
2022-10-31T11:27:48.450Z,2.63
2022-10-31T11:30:16.013Z,2.97
2022-10-31T11:32:49.698Z,2.78
2022-10-31T11:35:19.512Z,2.75
2022-10-31T11:37:47.334Z,2.80
2022-10-31T11:40:18.752Z,3.22
2022-10-31T11:42:46.381Z,2.75
2022-10-31T11:45:16.456Z,3.13
2022-10-31T11:47:45.138Z,3.05
2022-10-31T11:50:13.531Z,2.70
2022-10-31T11:52:41.686Z,3.28
2022-10-31T11:55:11.781Z,3.17
2022-10-31T11:57:52.206Z,3.05
2022-10-31T12:00:22.907Z,3.75
2022-10-31T12:02:50.354Z,2.88
2022-10-31T12:05:23.389Z,3.15
2022-10-31T12:07:50.609Z,3.00
2022-10-31T12:10:21.356Z,3.15
2022-10-31T12:12:54.119Z,3.63
2022-10-31T12:15:24.245Z,2.80
2022-10-31T12:17:51.386Z,3.05
2022-10-31T12:20:30.688Z,3.53
2022-10-31T12:22:58.020Z,3.30
2022-10-31T12:25:37.862Z,3.28
2022-10-31T12:28:19.889Z,3.38
2022-10-31T12:31:05.765Z,3.20
2022-10-31T12:33:32.833Z,3.10
2022-10-31T12:36:15.168Z,3.65
2022-10-31T12:38:42.739Z,3.30
2022-10-31T12:41:28.808Z,3.20
2022-10-31T12:43:59.010Z,3.45
2022-10-31T12:46:32.856Z,3.13
2022-10-31T12:49:08.983Z,3.10
2022-10-31T12:51:49.983Z,3.88
2022-10-31T12:54:20.041Z,3.30
2022-10-31T12:57:06.320Z,3.60
2022-10-31T12:59:48.410Z,3.45
2022-10-31T13:02:39.768Z,3.22
2022-10-31T13:05:13.032Z,3.03
2022-10-31T13:07:44.617Z,3.95
2022-10-31T13:10:14.754Z,3.63
2022-10-31T13:12:42.548Z,3.72
2022-10-31T13:15:28.308Z,4.15
2022-10-31T13:17:57.456Z,4.13
2022-10-31T13:20:27.767Z,3.13
2022-10-31T13:22:55.949Z,3.55
2022-10-31T13:25:27.302Z,3.55
2022-10-31T13:28:00.095Z,3.35
2022-10-31T13:30:35.061Z,3.55
2022-10-31T13:33:07.983Z,3.25
2022-10-31T13:35:42.455Z,3.85
2022-10-31T13:38:15.646Z,2.75
2022-10-31T13:40:48.694Z,3.22
2022-10-31T13:43:15.745Z,3.55
2022-10-31T13:45:50.633Z,3.92
2022-10-31T13:50:56.274Z,4.07
2022-10-31T13:53:24.318Z,4.38
2022-10-31T13:56:03.611Z,3.72
2022-10-31T13:58:32.232Z,3.47
2022-10-31T14:01:05.883Z,3.55
2022-10-31T14:03:58.421Z,3.80
2022-10-31T14:06:23.101Z,3.90
2022-10-31T14:08:52.950Z,3.95
2022-10-31T14:11:25.961Z,3.75
2022-10-31T14:13:53.128Z,3.42
2022-10-31T14:16:25.632Z,3.58
2022-10-31T14:19:21.808Z,3.80
2022-10-31T14:21:49.857Z,3.58
2022-10-31T14:24:16.959Z,4.00
2022-10-31T14:26:53.436Z,3.45
2022-10-31T14:29:20.543Z,3.90
2022-10-31T14:31:58.698Z,3.72
2022-10-31T14:34:28.597Z,4.20
2022-10-31T14:37:14.701Z,4.15
2022-10-31T14:39:47.835Z,3.45
2022-10-31T14:42:27.069Z,4.05
2022-10-31T14:45:07.433Z,4.25
2022-10-31T14:47:37.270Z,3.88
2022-10-31T14:50:22.565Z,5.07
2022-10-31T14:55:16.965Z,5.05
2022-10-31T14:57:48.612Z,5.15
2022-10-31T15:00:20.147Z,5.38
2022-10-31T15:02:47.278Z,5.70
2022-10-31T15:05:14.656Z,5.20
2022-10-31T15:07:52.906Z,6.57
2022-10-31T15:10:24.902Z,6.25
2022-10-31T15:12:52.467Z,6.70
2022-10-31T15:15:21.309Z,6.82
2022-10-31T15:17:54.457Z,7.07
2022-10-31T15:20:24.282Z,7.57
2022-10-31T15:22:51.667Z,7.35
2022-10-31T15:25:19.949Z,7.07
2022-10-31T15:27:47.926Z,7.40
2022-10-31T15:30:19.813Z,7.95
2022-10-31T15:32:57.277Z,8.10
2022-10-31T15:35:29.442Z,8.13
2022-10-31T15:37:57.324Z,8.15
2022-10-31T15:40:26.486Z,9.07
2022-10-31T15:42:57.283Z,9.18
2022-10-31T15:45:25.499Z,8.98
2022-10-31T15:47:58.697Z,9.27
2022-10-31T15:50:31.954Z,8.57
2022-10-31T15:53:00.861Z,9.13
2022-10-31T15:55:30.236Z,8.80
2022-10-31T15:57:59.629Z,8.00
2022-10-31T16:00:28.457Z,8.20
2022-10-31T16:03:04.572Z,8.95
2022-10-31T16:05:39.742Z,7.28
2022-10-31T16:08:25.063Z,7.53
